Latest Coastal Weather Observations for Rundle Island

IDQ60701

Issued at 5:52 am EST Saturday 19 August 2017 (issued every 10 minutes, with the page automatically refreshed every 10 minutes)

About coastal observations | Map of coastal stations | Coastal observations for QLD | Marine services | Other Formats
Station Details ID: 039322 Name: RUNDLE ISLAND Lat: -23.53 Lon: 151.28 Height: 19.8 m
Data from the previous 72 hours. | See also: Recent months at Rundle Island
Date/Time
EST
Temp
°C
Wind Pressure Rain since
9am
mm
Weather Cloud Vis
km
Sea
Height
m
Swell
Dir  Spd
kts
Gust
kts
hPa Trend Height
m
Period
s
Dir
18/11:00pm 22.4 SSW 6 9 1016.9 - - - - - - - - -
18/10:30pm 22.4 SSW 5 6 1016.9 - - - - - - - - -
18/10:00pm 21.4 WSW 2 4 1016.8 - - - - - - - - -
18/09:30pm 21.7 CALM 0 0 1016.5 - - - - - - - - -
18/09:00pm 21.7 W 3 5 1016.4 - - - - - - - - -
18/08:30pm 22.2 WNW 4 5 1016.3 - - - - - - - - -
18/08:00pm 22.2 NW 4 5 1015.9 - - - - - - - - -
18/07:30pm 22.3 WNW 3 5 1015.4 - - - - - - - - -
18/07:00pm 22.3 NW 4 5 1015.1 - - - - - - - - -
18/06:30pm 22.4 NNW 6 7 1014.6 - - - - - - - - -
18/06:00pm 22.5 NNW 6 7 1014.3 - - - - - - - - -
18/05:30pm 22.7 NNW 6 7 1014.0 - - - - - - - - -
18/05:00pm 22.8 N 8 9 1013.8 - - - - - - - - -
18/04:30pm 23.3 NNE 7 8 1013.5 - - - - - - - - -
18/04:00pm 23.3 NNE 9 11 1013.2 - - - - - - - - -
18/03:30pm 23.4 NNE 10 11 1013.1 - - - - - - - - -
18/03:00pm 23.4 NNE 9 10 1013.2 - - - - - - - - -
18/02:30pm 23.0 N 8 9 1013.6 - - - - - - - - -
18/02:00pm 22.8 N 8 9 1013.9 - - - - - - - - -
18/01:30pm 23.0 N 8 10 1014.3 - - - - - - - - -
18/01:00pm 24.4 NNE 7 8 1014.7 - - - - - - - - -
18/12:30pm 24.4 NNE 7 8 1015.1 - - - - - - - - -
18/12:00pm 24.3 ENE 6 7 1015.7 - - - - - - - - -
18/11:30am 24.7 CALM 0 0 1016.4 - - - - - - - - -
18/11:00am 24.0 CALM 0 0 1016.8 - - - - - - - - -
18/10:30am 23.9 CALM 0 0 1017.0 - - - - - - - - -
18/10:00am 24.3 CALM 0 0 1017.2 - - - - - - - - -
18/09:30am 23.7 - - - 1017.2 - - - - - - - - -
18/08:30am 21.0 W 4 5 1016.8 - - - - - - - - -
18/08:00am 20.3 W 5 6 1016.6 - - - - - - - - -
18/07:30am 19.8 WSW 4 5 1016.4 - - - - - - - - -
18/07:00am 19.9 WSW 6 7 1016.0 - - - - - - - - -
18/06:30am 20.4 W 5 5 1015.8 - - - - - - - - -
18/06:00am 20.1 WNW 4 5 1015.4 - - - - - - - - -
18/05:30am 20.2 W 4 5 1014.9 - - - - - - - - -
18/05:00am 20.4 W 4 5 1014.6 - - - - - - - - -
18/04:30am 21.1 NW 5 6 1014.3 - - - - - - - - -
18/04:00am 21.2 NNW 6 7 1014.2 - - - - - - - - -
18/03:30am 21.2 NNW 7 7 1014.1 - - - - - - - - -
18/03:00am 21.2 N 6 7 1014.1 - - - - - - - - -
18/02:30am 21.0 NNW 6 7 1014.2 - - - - - - - - -
18/02:00am 20.6 NNW 4 5 1014.3 - - - - - - - - -
18/01:30am 20.6 SW 9 13 1015.1 - - - - - - - - -
18/01:00am 21.4 W 10 13 1014.9 - - - - - - - - -
18/12:30am 21.5 NNW 12 13 1014.1 - - - - - - - - -
18/12:00am 21.6 NNW 11 13 1014.2 - - - - - - - - -
 
Date/Time
EST
Temp
°C
Wind Pressure Rain since
9am
mm
Weather Cloud Vis
km
Sea
Height
m
Swell
Dir  Spd
kts
Gust
kts
hPa Trend Height
m
Period
s
Dir
17/11:30pm 21.8 NNW 17 19 1014.1 - - - - - - - - -
17/11:00pm 21.8 NNW 17 18 1014.2 - - - - - - - - -
17/10:30pm 21.9 NNW 16 18 1014.2 - - - - - - - - -
17/10:00pm 22.0 NNW 17 19 1014.1 - - - - - - - - -
17/09:30pm 22.1 NNW 17 19 1014.0 - - - - - - - - -
17/09:00pm 22.3 NNW 15 17 1014.2 - - - - - - - - -
17/08:30pm 22.3 NNW 17 19 1014.0 - - - - - - - - -
17/08:00pm 22.3 NNW 17 19 1013.6 - - - - - - - - -
17/07:30pm 22.3 NNW 16 18 1013.4 - - - - - - - - -
17/07:00pm 22.3 N 17 19 1012.9 - - - - - - - - -
17/06:30pm 22.3 N 18 21 1012.5 - - - - - - - - -
17/06:00pm 22.3 N 19 22 1012.1 - - - - - - - - -
17/05:30pm 22.3 N 17 20 1011.9 - - - - - - - - -
17/05:00pm 22.3 N 15 17 1011.8 - - - - - - - - -
17/04:30pm 22.4 N 15 17 1011.8 - - - - - - - - -
17/04:00pm 22.4 N 14 16 1011.7 - - - - - - - - -
17/03:30pm 22.4 N 14 16 1011.7 - - - - - - - - -
17/03:00pm 22.3 N 14 16 1011.7 - - - - - - - - -
17/02:30pm 22.3 N 14 17 1012.0 - - - - - - - - -
17/02:00pm 22.6 NNW 13 15 1012.4 - - - - - - - - -
17/01:30pm 22.3 N 13 16 1012.7 - - - - - - - - -
17/01:00pm 22.0 NNW 12 13 1013.0 - - - - - - - - -
17/12:30pm 22.6 NNW 11 13 1013.5 - - - - - - - - -
17/12:00pm 22.4 NNW 12 13 1014.0 - - - - - - - - -
17/11:30am 22.3 NNW 12 13 1014.5 - - - - - - - - -
17/11:00am 22.3 NW 12 13 1015.1 - - - - - - - - -
17/10:30am 22.2 NW 13 15 1015.5 - - - - - - - - -
17/10:00am 22.1 NW 12 14 1015.8 - - - - - - - - -
17/09:30am 21.9 NW 12 14 1015.9 - - - - - - - - -
17/09:00am 21.9 NW 14 16 1015.8 - - - - - - - - -
17/08:30am 21.8 NNW 15 17 1015.8 - - - - - - - - -
17/08:00am 21.6 NNW 16 17 1015.6 - - - - - - - - -
17/07:30am 21.6 NW 15 17 1015.4 - - - - - - - - -
17/07:00am 21.4 NNW 15 17 1015.2 - - - - - - - - -
17/06:30am 21.4 NNW 16 18 1014.9 - - - - - - - - -
17/06:00am 21.4 NNW 16 19 1014.6 - - - - - - - - -
17/05:30am 21.4 NNW 16 18 1014.1 - - - - - - - - -
17/05:00am 21.3 NNW 14 17 1014.1 - - - - - - - - -
17/04:30am 21.3 NNW 15 17 1013.9 - - - - - - - - -
17/04:00am 21.4 NNW 13 16 1014.2 - - - - - - - - -
17/03:30am 21.4 NNW 13 16 1014.2 - - - - - - - - -
17/03:00am 21.4 NNW 12 14 1014.4 - - - - - - - - -
17/02:30am 21.5 NNW 13 14 1014.4 - - - - - - - - -
17/02:00am 21.7 NNW 14 17 1014.6 - - - - - - - - -
17/01:30am 21.7 NNW 15 17 1014.8 - - - - - - - - -
17/01:00am 21.7 NNW 14 17 1014.9 - - - - - - - - -
17/12:30am 21.7 NNW 14 16 1015.2 - - - - - - - - -
17/12:00am 21.8 NNW 16 17 1015.2 - - - - - - - - -
 
Date/Time
EST
Temp
°C
Wind Pressure Rain since
9am
mm
Weather Cloud Vis
km
Sea
Height
m
Swell
Dir  Spd
kts
Gust
kts
hPa Trend Height
m
Period
s
Dir
16/11:30pm 21.8 NNW 15 17 1015.3 - - - - - - - - -
16/11:00pm 21.9 NNW 15 17 1015.1 - - - - - - - - -
16/10:30pm 21.9 NNW 17 20 1014.8 - - - - - - - - -
16/10:00pm 22.0 N 16 17 1015.2 - - - - - - - - -
16/09:30pm 22.0 NNW 15 18 1015.4 - - - - - - - - -
16/09:00pm 22.1 NNW 16 18 1015.3 - - - - - - - - -
16/08:30pm 22.0 N 16 19 1015.1 - - - - - - - - -
16/08:00pm 22.0 N 17 20 1014.7 - - - - - - - - -
16/07:30pm 22.1 N 17 19 1014.4 - - - - - - - - -
16/07:00pm 22.1 N 18 20 1014.0 - - - - - - - - -
16/06:30pm 22.1 N 17 19 1013.7 - - - - - - - - -
16/06:00pm 22.1 N 17 19 1013.7 - - - - - - - - -
16/05:30pm 22.2 N 15 18 1013.6 - - - - - - - - -
16/05:00pm 22.3 N 15 17 1013.4 - - - - - - - - -
16/04:30pm 22.3 N 15 17 1013.4 - - - - - - - - -
16/04:00pm 22.4 N 16 19 1013.3 - - - - - - - - -
16/03:30pm 22.3 N 15 17 1013.3 - - - - - - - - -
16/03:00pm 22.3 N 14 16 1013.5 - - - - - - - - -
16/02:30pm 22.2 N 12 13 1013.8 - - - - - - - - -
16/02:00pm 22.3 N 11 13 1014.3 - - - - - - - - -
16/01:30pm 21.9 NNW 7 8 1014.7 - - - - - - - - -
16/01:00pm 22.6 NNW 8 9 1015.0 - - - - - - - - -
16/12:30pm 22.3 NNW 8 9 1015.6 - - - - - - - - -
16/12:00pm 22.9 NNW 7 9 1016.2 - - - - - - - - -
16/11:30am 22.4 NW 7 8 1016.8 - - - - - - - - -
16/11:00am 22.5 NW 8 10 1017.4 - - - - - - - - -
16/10:30am 22.4 NW 9 12 1017.5 - - - - - - - - -
16/10:00am 22.1 NW 8 9 1017.9 - - - - - - - - -
16/09:30am 21.9 NW 8 9 1017.9 - - - - - - - - -
16/09:00am 21.6 NW 6 7 1018.0 - - - - - - - - -
16/08:30am 21.3 NW 5 7 1017.8 - - - - - - - - -
16/08:00am 21.0 NW 4 5 1017.4 - - - - - - - - -
16/07:30am 20.6 NW 4 5 1017.3 - - - - - - - - -
16/07:00am 20.6 WNW 4 4 1016.9 - - - - - - - - -
16/06:30am 21.1 NNW 6 7 1016.5 - - - - - - - - -
16/06:00am 21.2 NNW 7 7 1016.1 - - - - - - - - -

Other Formats:

Comma delimited format used in spreadsheet applications
http://www.bom.gov.au/fwo/IDQ60701/IDQ60701.94378.axf

JavaScript Object Notation format (JSON) in row-major order
http://www.bom.gov.au/fwo/IDQ60701/IDQ60701.94378.json